Petra, Utah
Current Conditions -  °F | °C
As of 4:52 PM on Friday 19 Dec 2014 (Local Time) from KMLF Reporting Station
Clear Clear  
Wind Chill: 36°   Ceiling: Unl
Heat Index: 43°   Visibility: 10mi
Dew Point: 28°   Wind: 13mph
Humidity: 56%   Direction: 200°SSW
Pressure: 30.11"   Gusts: NA
Location:  39.0932°N, 113.543°W
Report Text: KMLF 192352Z AUTO 20011KT 10SM CLR 06/M02 A3011 RMK AO2 SLP205 T00611022 10083 20028 56007 TSNO
Loading
Personal Weather Stations






























Interactive Weather Map New forecast layout! Learn more

10-Day Weather Forecast

Advertisements
Track Severe Weather on mobile